createdAt,value
2022-08-31T00:03:25.690Z,100919.75
2022-08-31T00:08:25.716Z,100923.75
2022-08-31T00:13:22.411Z,100926.84
2022-08-31T00:18:20.216Z,100931.03
2022-08-31T00:23:17.395Z,100930.31
2022-08-31T00:28:15.583Z,100921.91
2022-08-31T00:33:12.789Z,100932.66
2022-08-31T00:38:10.771Z,100931.66
2022-08-31T00:43:07.388Z,100931.59
2022-08-31T00:48:04.824Z,100927.84
2022-08-31T00:53:01.803Z,100927.88
2022-08-31T00:58:00.491Z,100934.41
2022-08-31T01:02:57.726Z,100943.75
2022-08-31T01:07:55.740Z,100946.44
2022-08-31T01:12:54.288Z,100953.06
2022-08-31T01:17:52.081Z,100977.00
2022-08-31T01:23:06.336Z,100988.72
2022-08-31T01:28:05.750Z,100984.50
2022-08-31T01:33:02.490Z,100975.75
2022-08-31T01:38:01.416Z,100976.19
2022-08-31T01:42:58.553Z,100981.06
2022-08-31T01:47:55.908Z,100981.94
2022-08-31T01:52:54.984Z,100982.50
2022-08-31T01:57:51.559Z,100975.78
2022-08-31T02:03:24.119Z,100976.03
2022-08-31T02:08:21.648Z,100974.59
2022-08-31T02:13:18.324Z,100985.53
2022-08-31T02:18:15.064Z,100991.41
2022-08-31T02:23:12.571Z,100996.66
2022-08-31T02:28:12.128Z,101002.72
2022-08-31T02:33:08.837Z,101017.94
2022-08-31T02:38:06.117Z,101020.53
2022-08-31T02:43:03.968Z,101017.09
2022-08-31T02:48:03.594Z,101016.78
2022-08-31T02:53:08.917Z,101020.75
2022-08-31T02:58:06.896Z,101016.13
2022-08-31T03:03:03.648Z,101012.03
2022-08-31T03:08:00.306Z,101017.56
2022-08-31T03:12:56.961Z,101011.63
2022-08-31T03:17:55.591Z,101004.25
2022-08-31T03:22:53.887Z,101009.13
2022-08-31T03:27:50.958Z,101011.88
2022-08-31T03:32:48.110Z,101005.34
2022-08-31T03:37:46.391Z,101012.81
2022-08-31T03:42:44.142Z,101002.25
2022-08-31T03:47:44.510Z,101000.91
2022-08-31T03:52:43.492Z,101004.09
2022-08-31T03:57:47.819Z,101002.19
2022-08-31T04:02:44.418Z,101013.50
2022-08-31T04:07:59.395Z,101027.97
2022-08-31T04:13:15.069Z,101023.69
2022-08-31T04:18:38.953Z,101012.94
2022-08-31T04:23:38.747Z,101017.63
2022-08-31T04:28:35.990Z,101018.47
2022-08-31T04:33:32.502Z,101010.41
2022-08-31T04:38:29.055Z,101018.34
2022-08-31T04:43:25.812Z,101016.78
2022-08-31T04:48:23.640Z,101014.63
2022-08-31T04:53:20.402Z,101012.38
2022-08-31T04:58:19.784Z,101012.53
2022-08-31T05:03:16.347Z,101007.16
2022-08-31T05:08:17.637Z,101013.41
2022-08-31T05:13:14.263Z,101004.06
2022-08-31T05:18:11.026Z,101004.94
2022-08-31T05:23:14.666Z,101004.31
2022-08-31T05:28:13.469Z,101009.31
2022-08-31T05:33:10.583Z,101015.66
2022-08-31T05:38:07.191Z,101000.63
2022-08-31T05:43:04.627Z,100997.16
2022-08-31T05:48:01.234Z,101002.91
2022-08-31T05:53:02.462Z,101003.69
2022-08-31T05:57:59.758Z,101006.16
2022-08-31T06:02:57.864Z,101002.41
2022-08-31T06:07:54.474Z,101020.53
2022-08-31T06:12:51.692Z,101027.97
2022-08-31T06:17:48.912Z,101025.69
2022-08-31T06:22:47.366Z,101027.94
2022-08-31T06:27:54.551Z,101049.56
2022-08-31T06:32:51.097Z,101061.28
2022-08-31T06:37:56.353Z,101067.34
2022-08-31T06:43:24.985Z,101067.66
2022-08-31T06:48:26.514Z,101067.44
2022-08-31T06:53:23.809Z,101061.88
2022-08-31T06:58:42.323Z,101064.72
2022-08-31T07:03:57.793Z,101064.84
2022-08-31T07:08:56.842Z,101065.38
2022-08-31T07:13:54.623Z,101056.16
2022-08-31T07:18:57.058Z,101063.28
2022-08-31T07:23:54.319Z,101050.00
2022-08-31T07:28:57.507Z,101064.72
2022-08-31T07:33:55.626Z,101066.84
2022-08-31T07:39:11.247Z,101057.88
2022-08-31T07:44:14.158Z,101049.72
2022-08-31T07:49:13.334Z,101029.44
2022-08-31T07:54:28.439Z,101049.84
2022-08-31T07:59:33.051Z,101049.97
2022-08-31T08:04:31.959Z,101047.97
2022-08-31T08:09:49.155Z,101048.59
2022-08-31T08:15:06.367Z,101044.97
2022-08-31T08:20:38.561Z,101038.28
2022-08-31T08:25:37.365Z,101045.09
2022-08-31T08:30:37.895Z,101037.09
2022-08-31T08:35:34.871Z,101026.91
2022-08-31T08:40:32.915Z,101025.97
2022-08-31T08:45:31.760Z,101018.25
2022-08-31T08:50:30.581Z,101004.22
2022-08-31T08:55:32.380Z,101000.44
2022-08-31T09:00:29.596Z,100989.94
2022-08-31T09:05:41.795Z,100985.41
2022-08-31T09:11:00.408Z,100989.84
2022-08-31T09:16:04.607Z,100986.88
2022-08-31T09:21:07.694Z,100989.28
2022-08-31T09:26:08.148Z,100983.09
2022-08-31T09:31:33.983Z,100977.81
2022-08-31T09:36:38.258Z,100977.16
2022-08-31T09:41:36.722Z,100983.28
2022-08-31T09:46:39.857Z,100976.38
2022-08-31T09:51:38.717Z,100964.72
2022-08-31T09:56:49.885Z,100970.50
2022-08-31T10:01:46.771Z,100972.00
2022-08-31T10:06:49.176Z,100962.53
2022-08-31T10:11:47.164Z,100953.56
2022-08-31T10:16:47.450Z,100941.94
2022-08-31T10:21:51.500Z,100933.97
2022-08-31T10:26:53.429Z,100935.34
2022-08-31T10:31:52.311Z,100915.75
2022-08-31T10:36:53.535Z,100906.19
2022-08-31T10:41:50.955Z,100898.75
2022-08-31T10:46:49.772Z,100901.97
2022-08-31T10:51:50.388Z,100897.22
2022-08-31T10:56:58.663Z,100882.91
2022-08-31T11:02:00.399Z,100879.31
2022-08-31T11:07:00.591Z,100880.38
2022-08-31T11:12:04.335Z,100862.50
2022-08-31T11:17:11.924Z,100856.25
2022-08-31T11:22:31.718Z,100857.38
2022-08-31T11:27:33.646Z,100848.81
2022-08-31T11:32:37.336Z,100839.16
2022-08-31T11:37:56.246Z,100832.03
2022-08-31T11:43:00.445Z,100833.16
2022-08-31T11:47:57.878Z,100823.84
2022-08-31T11:52:56.308Z,100813.53
2022-08-31T11:58:10.792Z,100809.59
2022-08-31T12:03:08.918Z,100805.00
2022-08-31T12:08:14.690Z,100805.53
2022-08-31T12:13:18.040Z,100796.81
2022-08-31T12:18:26.598Z,100796.09
2022-08-31T12:23:36.315Z,100778.66
2022-08-31T12:28:40.000Z,100773.03
2022-08-31T12:33:40.220Z,100770.38
2022-08-31T12:38:36.991Z,100765.81
2022-08-31T12:43:37.678Z,100761.94
2022-08-31T12:49:07.557Z,100757.53
2022-08-31T12:54:18.976Z,100748.16
2022-08-31T12:59:23.192Z,100743.41
2022-08-31T13:04:21.280Z,100743.88
2022-08-31T13:09:28.805Z,100752.09
2022-08-31T13:14:28.013Z,100747.28
2022-08-31T13:19:28.866Z,100744.00
2022-08-31T13:24:28.385Z,100748.78
2022-08-31T13:29:25.119Z,100736.63
2022-08-31T13:34:22.987Z,100737.00
2022-08-31T13:39:27.192Z,100730.69
2022-08-31T13:44:33.099Z,100729.94
2022-08-31T13:49:34.744Z,100727.44
2022-08-31T13:54:32.864Z,100722.75
2022-08-31T13:59:31.673Z,100722.34
2022-08-31T14:04:43.226Z,100720.38
2022-08-31T14:09:44.249Z,100723.38
2022-08-31T14:14:41.677Z,100716.88
2022-08-31T14:19:39.025Z,100708.25
2022-08-31T14:24:35.708Z,100713.53
2022-08-31T14:29:33.525Z,100711.47
2022-08-31T14:34:31.541Z,100716.47
2022-08-31T14:39:30.777Z,100715.56
2022-08-31T14:44:29.821Z,100719.19
2022-08-31T14:49:26.626Z,100716.75
2022-08-31T14:54:24.256Z,100714.66
2022-08-31T14:59:21.971Z,100720.88
2022-08-31T15:04:19.997Z,100726.94
2022-08-31T15:09:16.807Z,100733.78
2022-08-31T15:14:13.839Z,100720.19
2022-08-31T15:19:12.977Z,100717.16
2022-08-31T15:24:09.882Z,100716.88
2022-08-31T15:29:06.520Z,100706.66
2022-08-31T15:34:10.136Z,100712.34
2022-08-31T15:39:07.665Z,100721.59
2022-08-31T15:44:09.631Z,100730.28
2022-08-31T15:49:07.077Z,100737.13
2022-08-31T15:54:21.232Z,100729.56
2022-08-31T15:59:22.233Z,100732.09
2022-08-31T16:04:22.850Z,100726.16
2022-08-31T16:09:22.281Z,100713.56
2022-08-31T16:14:21.949Z,100705.06
2022-08-31T16:19:34.234Z,100711.75
2022-08-31T16:24:36.400Z,100719.63
2022-08-31T16:29:34.598Z,100718.50
2022-08-31T16:34:31.226Z,100735.88
2022-08-31T16:39:28.459Z,100734.94
2022-08-31T16:44:28.393Z,100743.38
2022-08-31T16:49:35.456Z,100749.09
2022-08-31T16:54:33.451Z,100749.53
2022-08-31T16:59:30.300Z,100744.78
2022-08-31T17:04:51.147Z,100752.00
2022-08-31T17:09:46.374Z,100766.50
2022-08-31T17:14:46.052Z,100772.81
2022-08-31T17:19:43.806Z,100779.84
2022-08-31T17:24:44.615Z,100778.47
2022-08-31T17:29:43.995Z,100786.47
2022-08-31T17:34:41.243Z,100786.44
2022-08-31T17:39:37.928Z,100789.78
2022-08-31T17:44:34.528Z,100810.66
2022-08-31T17:49:31.956Z,100825.91
2022-08-31T17:54:35.576Z,100818.97
2022-08-31T17:59:33.866Z,100824.06
2022-08-31T18:04:33.401Z,100828.81
2022-08-31T18:09:31.239Z,100827.63
2022-08-31T18:14:29.086Z,100822.59
2022-08-31T18:19:27.814Z,100821.19
2022-08-31T18:24:25.738Z,100834.53
2022-08-31T18:29:24.707Z,100836.06
2022-08-31T18:34:25.611Z,100828.13
2022-08-31T18:39:47.691Z,100840.94
2022-08-31T18:44:59.979Z,100837.66
2022-08-31T18:49:57.962Z,100843.00
2022-08-31T18:54:55.900Z,100855.63
2022-08-31T18:59:53.611Z,100873.00
2022-08-31T19:04:50.739Z,100881.59
2022-08-31T19:09:47.909Z,100890.56
2022-08-31T19:14:46.407Z,100911.00
2022-08-31T19:19:43.792Z,100926.66
2022-08-31T19:24:40.951Z,100928.69
2022-08-31T19:29:39.236Z,100935.78
2022-08-31T19:34:36.915Z,100928.88
2022-08-31T19:39:37.156Z,100928.75
2022-08-31T19:49:52.761Z,100927.94
2022-08-31T19:54:51.263Z,100931.91
2022-08-31T19:59:48.305Z,100922.19
2022-08-31T20:04:45.082Z,100932.03
2022-08-31T20:09:42.589Z,100940.78
2022-08-31T20:14:39.915Z,100948.25
2022-08-31T20:19:37.905Z,100928.53
2022-08-31T20:24:35.348Z,100945.19
2022-08-31T20:29:33.363Z,100934.66
2022-08-31T20:34:31.161Z,100947.34
2022-08-31T20:39:28.882Z,100948.13
2022-08-31T20:44:26.767Z,100943.44
2022-08-31T20:49:24.069Z,100965.88
2022-08-31T20:54:22.163Z,100958.44
2022-08-31T20:59:22.813Z,100962.19
2022-08-31T21:04:19.421Z,100955.81
2022-08-31T21:09:15.987Z,100954.78
2022-08-31T21:14:14.399Z,100954.06
2022-08-31T21:19:12.351Z,100949.94
2022-08-31T21:24:10.905Z,100955.91
2022-08-31T21:29:08.500Z,100965.75
2022-08-31T21:34:05.812Z,100958.28
2022-08-31T21:39:04.656Z,100964.16
2022-08-31T21:44:01.369Z,100961.59
2022-08-31T21:48:59.262Z,100967.78
2022-08-31T21:53:58.372Z,100953.00
2022-08-31T21:58:55.689Z,100962.88
2022-08-31T22:03:53.954Z,100967.06
2022-08-31T22:08:55.190Z,100946.88
2022-08-31T22:13:54.405Z,100945.50
2022-08-31T22:19:07.751Z,100941.66
2022-08-31T22:24:06.312Z,100929.75
2022-08-31T22:29:05.422Z,100923.22
2022-08-31T22:34:03.186Z,100915.09
2022-08-31T22:39:02.750Z,100911.28
2022-08-31T22:44:00.554Z,100907.91
2022-08-31T22:48:58.140Z,100884.78
2022-08-31T22:53:55.012Z,100891.44
2022-08-31T22:58:52.400Z,100887.13
2022-08-31T23:03:50.674Z,100886.75
2022-08-31T23:08:48.799Z,100891.88
2022-08-31T23:13:52.333Z,100904.94
2022-08-31T23:18:49.384Z,100916.00
2022-08-31T23:23:46.746Z,100906.53
2022-08-31T23:28:46.618Z,100911.34
2022-08-31T23:33:46.746Z,100907.69
2022-08-31T23:38:49.506Z,100907.09
2022-08-31T23:43:47.492Z,100907.41
2022-08-31T23:48:44.332Z,100906.53
2022-08-31T23:53:41.214Z,100888.31
2022-08-31T23:58:38.925Z,100897.09
